createdAt,value
2023-05-02T00:01:22.752Z,100953.22
2023-05-02T00:03:53.189Z,100950.44
2023-05-02T00:06:23.337Z,100947.63
2023-05-02T00:08:53.585Z,100957.75
2023-05-02T00:11:25.462Z,100949.44
2023-05-02T00:13:55.601Z,100959.53
2023-05-02T00:16:28.401Z,100954.72
2023-05-02T00:18:58.827Z,100948.41
2023-05-02T00:21:29.535Z,100949.63
2023-05-02T00:24:00.513Z,100920.84
2023-05-02T00:26:31.244Z,100919.22
2023-05-02T00:29:01.503Z,100935.41
2023-05-02T00:31:35.977Z,100945.28
2023-05-02T00:34:06.732Z,100948.28
2023-05-02T00:36:37.096Z,100954.38
2023-05-02T00:39:08.174Z,100951.09
2023-05-02T00:41:38.710Z,100930.94
2023-05-02T00:44:09.210Z,100960.31
2023-05-02T00:46:42.243Z,100960.94
2023-05-02T00:49:12.737Z,100963.09
2023-05-02T00:51:43.719Z,100969.03
2023-05-02T00:54:14.720Z,100968.03
2023-05-02T00:56:45.144Z,100964.72
2023-05-02T00:59:16.749Z,100957.13
2023-05-02T01:02:01.404Z,100961.44
2023-05-02T01:04:43.139Z,100959.41
2023-05-02T01:07:25.541Z,100961.09
2023-05-02T01:10:12.735Z,100962.09
2023-05-02T01:12:46.393Z,100978.13
2023-05-02T01:15:22.076Z,100954.00
2023-05-02T01:17:57.699Z,100976.41
2023-05-02T01:20:32.237Z,100948.00
2023-05-02T01:23:10.168Z,100970.22
2023-05-02T01:25:59.601Z,100952.75
2023-05-02T01:28:40.706Z,100986.00
2023-05-02T01:31:15.377Z,100984.50
2023-05-02T01:33:47.832Z,100982.09
2023-05-02T01:36:22.824Z,100969.38
2023-05-02T01:38:54.600Z,100989.69
2023-05-02T01:41:27.994Z,100975.47
2023-05-02T01:44:01.039Z,100994.75
2023-05-02T01:46:36.927Z,100993.59
2023-05-02T01:49:11.031Z,100999.38
2023-05-02T01:51:48.991Z,101002.66
2023-05-02T01:54:20.773Z,100994.38
2023-05-02T01:56:51.406Z,101010.72
2023-05-02T01:59:24.009Z,101011.88
2023-05-02T02:01:57.999Z,101011.50
2023-05-02T02:04:29.498Z,101011.06
2023-05-02T02:07:04.377Z,101012.44
2023-05-02T02:09:34.806Z,101009.00
2023-05-02T02:12:10.041Z,101020.59
2023-05-02T02:14:42.403Z,101020.34
2023-05-02T02:17:28.661Z,101023.94
2023-05-02T02:20:00.706Z,101028.84
2023-05-02T02:22:32.169Z,101021.28
2023-05-02T02:25:02.637Z,101027.16
2023-05-02T02:27:32.922Z,101032.22
2023-05-02T02:30:04.589Z,101003.19
2023-05-02T02:32:37.358Z,101029.50
2023-05-02T02:35:08.871Z,101024.16
2023-05-02T02:37:44.555Z,101034.91
2023-05-02T02:40:23.857Z,101039.31
2023-05-02T02:43:05.580Z,101030.44
2023-05-02T02:45:42.007Z,101038.50
2023-05-02T02:48:28.067Z,101045.81
2023-05-02T02:51:06.484Z,101043.41
2023-05-02T02:53:41.212Z,101044.78
2023-05-02T02:56:19.126Z,101053.06
2023-05-02T02:58:57.622Z,101056.38
2023-05-02T03:01:32.092Z,101060.06
2023-05-02T03:04:09.168Z,101062.19
2023-05-02T03:06:42.600Z,101060.88
2023-05-02T03:09:19.416Z,101060.72
2023-05-02T03:11:52.027Z,101058.97
2023-05-02T03:14:22.251Z,101069.66
2023-05-02T03:16:53.207Z,101060.47
2023-05-02T03:19:29.912Z,101068.94
2023-05-02T03:22:02.289Z,101042.56
2023-05-02T03:24:34.088Z,101077.81
2023-05-02T03:27:15.920Z,101072.63
2023-05-02T03:29:48.545Z,101079.94
2023-05-02T03:32:18.994Z,101080.66
2023-05-02T03:34:52.603Z,101077.41
2023-05-02T03:37:22.609Z,101054.31
2023-05-02T03:39:52.857Z,101050.31
2023-05-02T03:42:25.677Z,101063.50
2023-05-02T03:44:56.583Z,101086.31
2023-05-02T03:47:28.483Z,101086.16
2023-05-02T03:50:03.625Z,101092.13
2023-05-02T03:52:37.710Z,101088.38
2023-05-02T03:55:09.231Z,101091.34
2023-05-02T03:57:40.868Z,101094.63
2023-05-02T04:00:14.584Z,101100.41
2023-05-02T04:02:52.235Z,101094.47
2023-05-02T04:05:28.877Z,101103.25
2023-05-02T04:07:59.918Z,101109.03
2023-05-02T04:10:30.235Z,101113.94
2023-05-02T04:13:04.030Z,101123.59
2023-05-02T04:15:36.224Z,101118.44
2023-05-02T04:18:07.408Z,101127.50
2023-05-02T04:20:41.633Z,101130.38
2023-05-02T04:23:11.897Z,101133.78
2023-05-02T04:25:42.042Z,101133.63
2023-05-02T04:28:12.951Z,101139.44
2023-05-02T04:30:43.356Z,101147.72
2023-05-02T04:33:14.887Z,101141.63
2023-05-02T04:35:47.875Z,101154.38
2023-05-02T04:38:19.969Z,101153.53
2023-05-02T04:40:54.234Z,101161.38
2023-05-02T04:43:31.450Z,101164.34
2023-05-02T04:46:04.865Z,101176.78
2023-05-02T04:48:42.295Z,101173.22
2023-05-02T04:51:17.061Z,101176.88
2023-05-02T04:53:50.707Z,101182.06
2023-05-02T04:56:22.002Z,101192.41
2023-05-02T04:58:52.796Z,101194.78
2023-05-02T05:01:24.322Z,101198.94
2023-05-02T05:03:56.984Z,101213.00
2023-05-02T05:06:30.037Z,101189.84
2023-05-02T05:09:00.653Z,101209.28
2023-05-02T05:11:30.907Z,101220.84
2023-05-02T05:14:01.143Z,101220.84
2023-05-02T05:16:32.426Z,101239.97
2023-05-02T05:19:03.143Z,101254.75
2023-05-02T05:21:38.290Z,101262.97
2023-05-02T05:24:09.619Z,101257.97
2023-05-02T05:26:40.842Z,101265.41
2023-05-02T05:29:14.904Z,101279.38
2023-05-02T05:31:46.055Z,101272.84
2023-05-02T05:34:19.146Z,101287.19
2023-05-02T05:36:53.367Z,101295.31
2023-05-02T05:39:25.775Z,101300.69
2023-05-02T05:41:59.259Z,101306.91
2023-05-02T05:44:30.190Z,101306.13
2023-05-02T05:47:02.803Z,101318.88
2023-05-02T05:49:38.455Z,101317.06
2023-05-02T05:52:15.978Z,101329.75
2023-05-02T05:54:46.387Z,101328.19
2023-05-02T05:57:17.055Z,101339.81
2023-05-02T05:59:47.379Z,101345.41
2023-05-02T06:02:19.949Z,101346.84
2023-05-02T06:04:50.737Z,101346.38
2023-05-02T06:07:26.556Z,101358.38
2023-05-02T06:09:56.676Z,101365.38
2023-05-02T06:12:27.203Z,101365.53
2023-05-02T06:14:57.414Z,101372.66
2023-05-02T06:17:27.920Z,101376.56
2023-05-02T06:19:58.522Z,101380.22
2023-05-02T06:22:31.479Z,101391.09
2023-05-02T06:25:01.985Z,101400.00
2023-05-02T06:27:33.675Z,101402.03
2023-05-02T06:30:04.961Z,101401.81
2023-05-02T06:32:35.538Z,101419.41
2023-05-02T06:35:05.758Z,101415.16
2023-05-02T06:37:39.275Z,101415.03
2023-05-02T06:40:11.209Z,101418.63
2023-05-02T06:42:41.454Z,101421.44
2023-05-02T06:45:12.414Z,101428.91
2023-05-02T06:47:42.489Z,101416.91
2023-05-02T06:50:14.433Z,101444.47
2023-05-02T06:52:47.184Z,101447.34
2023-05-02T06:55:17.398Z,101450.94
2023-05-02T06:57:47.443Z,101445.41
2023-05-02T07:00:21.874Z,101448.75
2023-05-02T07:02:52.651Z,101422.03
2023-05-02T07:05:22.533Z,101443.53
2023-05-02T07:07:57.713Z,101462.31
2023-05-02T07:10:27.902Z,101460.94
2023-05-02T07:13:00.889Z,101460.81
2023-05-02T07:15:30.955Z,101460.88
2023-05-02T07:18:01.267Z,101474.41
2023-05-02T07:20:31.681Z,101494.22
2023-05-02T07:23:05.668Z,101493.97
2023-05-02T07:25:36.867Z,101493.25
2023-05-02T07:28:07.316Z,101495.38
2023-05-02T07:30:37.443Z,101497.91
2023-05-02T07:33:07.786Z,101510.41
2023-05-02T07:35:37.868Z,101504.78
2023-05-02T07:38:10.559Z,101503.53
2023-05-02T07:40:40.972Z,101503.38
2023-05-02T07:43:11.458Z,101522.50
2023-05-02T07:45:41.620Z,101522.09
2023-05-02T07:48:11.882Z,101520.16
2023-05-02T07:50:42.145Z,101530.25
2023-05-02T07:53:15.153Z,101529.91
2023-05-02T07:55:45.250Z,101534.47
2023-05-02T07:58:15.431Z,101535.53
2023-05-02T08:00:45.554Z,101541.13
2023-05-02T08:03:15.717Z,101531.94
2023-05-02T08:05:45.833Z,101540.88
2023-05-02T08:08:18.560Z,101556.72
2023-05-02T08:10:50.613Z,101549.88
2023-05-02T08:13:21.205Z,101557.72
2023-05-02T08:15:52.154Z,101557.88
2023-05-02T08:18:24.041Z,101563.06
2023-05-02T08:20:54.643Z,101568.69
2023-05-02T08:23:27.391Z,101580.72
2023-05-02T08:25:57.528Z,101583.56
2023-05-02T08:28:27.913Z,101589.00
2023-05-02T08:30:58.075Z,101588.19
2023-05-02T08:33:28.420Z,101577.63
2023-05-02T08:35:58.328Z,101590.13
2023-05-02T08:38:31.121Z,101584.34
2023-05-02T08:41:01.210Z,101597.34
2023-05-02T08:43:32.666Z,101610.09
2023-05-02T08:46:05.069Z,101606.03
2023-05-02T08:48:36.250Z,101602.88
2023-05-02T08:51:07.192Z,101613.13
2023-05-02T08:53:40.997Z,101623.13
2023-05-02T08:56:12.165Z,101621.25
2023-05-02T08:58:43.284Z,101629.47
2023-05-02T09:01:16.242Z,101626.66
2023-05-02T09:03:47.283Z,101639.25
2023-05-02T09:06:19.360Z,101649.63
2023-05-02T09:08:53.680Z,101649.63
2023-05-02T09:11:24.377Z,101661.47
2023-05-02T09:13:56.215Z,101657.81
2023-05-02T09:16:27.632Z,101664.44
2023-05-02T09:18:59.034Z,101667.91
2023-05-02T09:21:37.897Z,101670.03
2023-05-02T09:24:21.260Z,101675.75
2023-05-02T09:27:03.124Z,101680.19
2023-05-02T09:29:36.506Z,101676.66
2023-05-02T09:32:07.226Z,101687.03
2023-05-02T09:34:37.830Z,101680.03
2023-05-02T09:37:08.538Z,101684.69
2023-05-02T09:39:41.101Z,101682.97
2023-05-02T09:42:11.106Z,101687.50
2023-05-02T09:44:41.394Z,101686.84
2023-05-02T09:47:11.612Z,101688.13
2023-05-02T09:49:46.686Z,101681.31
2023-05-02T09:52:18.546Z,101678.72
2023-05-02T09:54:52.835Z,101684.28
2023-05-02T09:57:23.534Z,101693.22
2023-05-02T10:00:03.657Z,101696.94
2023-05-02T10:02:43.644Z,101692.81
2023-05-02T10:05:14.763Z,101709.44
2023-05-02T10:07:44.996Z,101706.91
2023-05-02T10:10:20.489Z,101713.50
2023-05-02T10:12:53.658Z,101710.22
2023-05-02T10:15:28.227Z,101715.03
2023-05-02T10:18:01.321Z,101701.69
2023-05-02T10:20:38.868Z,101716.03
2023-05-02T10:23:09.923Z,101718.81
2023-05-02T10:25:43.349Z,101720.19
2023-05-02T10:28:13.782Z,101724.69
2023-05-02T10:30:44.716Z,101734.44
2023-05-02T10:33:19.244Z,101738.22
2023-05-02T10:35:50.605Z,101730.00
2023-05-02T10:38:24.967Z,101737.56
2023-05-02T10:40:59.197Z,101732.50
2023-05-02T10:43:34.038Z,101742.34
2023-05-02T10:46:05.229Z,101741.53
2023-05-02T10:48:35.525Z,101739.84
2023-05-02T10:51:06.046Z,101727.59
2023-05-02T10:53:37.807Z,101735.16
2023-05-02T10:56:29.399Z,101734.75
2023-05-02T10:59:32.283Z,101752.88
2023-05-02T11:02:03.578Z,101752.09
2023-05-02T11:05:04.628Z,101739.72
2023-05-02T11:07:39.841Z,101755.84
2023-05-02T11:10:28.271Z,101762.47
2023-05-02T11:13:02.052Z,101756.94
2023-05-02T11:16:00.089Z,101763.34
2023-05-02T11:18:30.092Z,101758.31
2023-05-02T11:21:33.061Z,101761.22
2023-05-02T11:24:33.208Z,101747.69
2023-05-02T11:27:36.009Z,101752.31
2023-05-02T11:30:39.208Z,101761.88
2023-05-02T11:33:18.026Z,101753.97
2023-05-02T11:35:51.837Z,101758.94
2023-05-02T11:38:24.752Z,101769.75
2023-05-02T11:40:57.087Z,101764.59
2023-05-02T11:43:31.495Z,101763.19
2023-05-02T11:46:06.251Z,101765.91
2023-05-02T11:48:36.434Z,101765.38
2023-05-02T11:51:07.731Z,101762.00
2023-05-02T11:53:43.717Z,101771.09
2023-05-02T11:56:13.837Z,101771.16
2023-05-02T11:58:44.522Z,101769.59
2023-05-02T12:01:18.453Z,101770.63
2023-05-02T12:03:49.706Z,101773.28
2023-05-02T12:06:21.652Z,101764.47
2023-05-02T12:08:55.798Z,101763.84
2023-05-02T12:11:27.078Z,101784.34
2023-05-02T12:13:57.848Z,101777.53
2023-05-02T12:16:31.109Z,101774.09
2023-05-02T12:19:01.521Z,101777.84
2023-05-02T12:21:33.303Z,101758.63
2023-05-02T12:24:04.142Z,101778.03
2023-05-02T12:26:34.519Z,101779.53
2023-05-02T12:29:08.385Z,101785.34
2023-05-02T12:31:41.514Z,101796.09
2023-05-02T12:34:11.789Z,101785.25
2023-05-02T12:36:47.770Z,101786.00
2023-05-02T12:39:17.883Z,101784.19
2023-05-02T12:41:48.069Z,101796.56
2023-05-02T12:44:18.940Z,101795.72
2023-05-02T12:47:03.515Z,101810.56
2023-05-02T12:49:33.810Z,101821.31
2023-05-02T12:52:04.213Z,101824.53
2023-05-02T12:54:34.405Z,101826.59
2023-05-02T12:57:08.406Z,101813.34
2023-05-02T12:59:41.372Z,101824.84
2023-05-02T13:02:15.091Z,101835.28
2023-05-02T13:04:45.165Z,101834.50
2023-05-02T13:07:15.231Z,101829.84
2023-05-02T13:09:45.275Z,101829.38
2023-05-02T13:12:15.511Z,101830.59
2023-05-02T13:14:45.623Z,101833.59
2023-05-02T13:17:18.660Z,101844.81
2023-05-02T13:20:00.326Z,101832.53
2023-05-02T13:22:32.092Z,101834.41
2023-05-02T13:25:02.400Z,101841.09
2023-05-02T13:27:34.311Z,101837.13
2023-05-02T13:30:10.426Z,101838.75
2023-05-02T13:32:43.620Z,101804.66
2023-05-02T13:35:16.196Z,101843.31
2023-05-02T13:37:46.595Z,101837.41
2023-05-02T13:40:20.075Z,101843.44
2023-05-02T13:42:50.227Z,101850.50
2023-05-02T13:45:20.810Z,101845.09
2023-05-02T13:47:54.231Z,101856.06
2023-05-02T13:50:24.382Z,101861.38
2023-05-02T13:52:54.504Z,101850.41
2023-05-02T13:55:27.110Z,101863.63
2023-05-02T13:57:58.618Z,101862.69
2023-05-02T14:00:29.439Z,101863.75
2023-05-02T14:03:02.164Z,101844.34
2023-05-02T14:05:32.205Z,101863.19
2023-05-02T14:08:02.144Z,101868.53
2023-05-02T14:10:32.255Z,101869.81
2023-05-02T14:13:02.279Z,101864.91
2023-05-02T14:15:32.491Z,101850.81
2023-05-02T14:18:05.178Z,101881.34
2023-05-02T14:20:35.836Z,101885.44
2023-05-02T14:23:07.568Z,101838.56
2023-05-02T14:25:39.438Z,101886.50
2023-05-02T14:28:11.233Z,101878.75
2023-05-02T14:30:45.169Z,101869.97
2023-05-02T14:33:25.222Z,101890.31
2023-05-02T14:35:56.241Z,101891.28
2023-05-02T14:38:27.072Z,101885.66
2023-05-02T14:40:58.663Z,101855.09
2023-05-02T14:43:30.678Z,101896.72
2023-05-02T14:46:04.701Z,101876.69
2023-05-02T14:48:38.581Z,101908.88
2023-05-02T14:51:15.446Z,101910.25
2023-05-02T14:53:45.820Z,101910.81
2023-05-02T14:56:18.404Z,101897.66
2023-05-02T14:58:48.544Z,101915.81
2023-05-02T15:01:19.945Z,101915.91
2023-05-02T15:04:06.075Z,101916.22
2023-05-02T15:06:38.469Z,101915.53
2023-05-02T15:09:09.143Z,101922.25
2023-05-02T15:11:39.171Z,101919.72
2023-05-02T15:14:09.508Z,101920.47
2023-05-02T15:16:39.934Z,101917.84
2023-05-02T15:19:12.794Z,101918.75
2023-05-02T15:21:42.850Z,101921.47
2023-05-02T15:24:13.211Z,101931.56
2023-05-02T15:26:43.561Z,101928.56
2023-05-02T15:29:13.766Z,101925.38
2023-05-02T15:31:43.849Z,101929.22
2023-05-02T15:34:16.740Z,101939.78
2023-05-02T15:36:46.799Z,101936.34
2023-05-02T15:39:18.190Z,101933.94
2023-05-02T15:41:48.312Z,101935.63
2023-05-02T15:44:18.522Z,101929.50
2023-05-02T15:46:49.652Z,101930.88
2023-05-02T15:49:24.653Z,101928.44
2023-05-02T15:51:54.901Z,101926.31
2023-05-02T15:54:25.029Z,101935.47
2023-05-02T15:56:55.278Z,101935.09
2023-05-02T15:59:28.428Z,101945.81
2023-05-02T16:01:59.456Z,101946.06
2023-05-02T16:04:35.941Z,101944.81
2023-05-02T16:07:06.013Z,101943.56
2023-05-02T16:09:36.222Z,101948.56
2023-05-02T16:12:07.462Z,101948.25
2023-05-02T16:14:38.422Z,101947.84
2023-05-02T16:17:08.460Z,101945.66
2023-05-02T16:19:41.147Z,101957.94
2023-05-02T16:22:11.641Z,101956.88
2023-05-02T16:24:41.830Z,101971.84
2023-05-02T16:27:13.555Z,101970.94
2023-05-02T16:29:43.704Z,101974.94
2023-05-02T16:32:13.753Z,101976.38
2023-05-02T16:34:46.336Z,101977.16
2023-05-02T16:37:16.539Z,101952.38
2023-05-02T16:39:52.709Z,101977.00
2023-05-02T16:42:22.686Z,101972.19
2023-05-02T16:44:52.843Z,101985.16
2023-05-02T16:47:22.926Z,101945.47
2023-05-02T16:49:58.724Z,101981.75
2023-05-02T16:52:29.815Z,101979.63
2023-05-02T16:55:00.034Z,101985.91
2023-05-02T16:57:30.146Z,101990.19
2023-05-02T17:00:03.460Z,101990.34
2023-05-02T17:02:34.386Z,101993.56
2023-05-02T17:05:07.720Z,101979.25
2023-05-02T17:07:37.997Z,101987.19
2023-05-02T17:10:09.781Z,101983.75
2023-05-02T17:12:39.788Z,101980.56
2023-05-02T17:15:13.790Z,101985.78
2023-05-02T17:17:45.747Z,101977.50
2023-05-02T17:20:20.678Z,101978.19
2023-05-02T17:22:51.432Z,101983.44
2023-05-02T17:25:22.943Z,101994.97
2023-05-02T17:27:52.995Z,101990.13
2023-05-02T17:30:25.314Z,101994.09
2023-05-02T17:32:55.675Z,101989.41
2023-05-02T17:35:30.164Z,102009.53
2023-05-02T17:38:00.505Z,102004.38
2023-05-02T17:40:32.578Z,102004.91
2023-05-02T17:43:02.835Z,102017.13
2023-05-02T17:45:36.613Z,101994.31
2023-05-02T17:48:06.859Z,101997.56
2023-05-02T17:50:42.207Z,102015.88
2023-05-02T17:53:13.299Z,102014.63
2023-05-02T17:55:43.565Z,102018.06
2023-05-02T17:58:13.861Z,102020.22
2023-05-02T18:00:43.923Z,102017.16
2023-05-02T18:03:14.447Z,102024.19
2023-05-02T18:05:47.949Z,102022.72
2023-05-02T18:08:17.950Z,102013.44
2023-05-02T18:10:48.195Z,102010.91
2023-05-02T18:13:18.205Z,102017.03
2023-05-02T18:15:49.449Z,102027.66
2023-05-02T18:18:19.509Z,102028.56
2023-05-02T18:20:52.308Z,102028.75
2023-05-02T18:23:24.716Z,102030.38
2023-05-02T18:26:00.759Z,102025.34
2023-05-02T18:28:30.911Z,102014.38
2023-05-02T18:31:01.563Z,102024.63
2023-05-02T18:33:31.954Z,102027.88
2023-05-02T18:36:06.308Z,102026.78
2023-05-02T18:38:37.700Z,102026.97
2023-05-02T18:41:09.555Z,102027.13
2023-05-02T18:43:39.702Z,102028.25
2023-05-02T18:46:12.286Z,102031.13
2023-05-02T18:48:42.676Z,102030.22
2023-05-02T18:51:16.346Z,102021.59
2023-05-02T18:53:46.416Z,102026.81
2023-05-02T18:56:17.193Z,102039.41
2023-05-02T18:58:47.183Z,102036.09
2023-05-02T19:01:20.358Z,102045.06
2023-05-02T19:03:50.690Z,102043.25
2023-05-02T19:06:23.596Z,102044.16
2023-05-02T19:08:53.866Z,102037.81
2023-05-02T19:11:23.963Z,102053.97
2023-05-02T19:13:56.893Z,102062.00
2023-05-02T19:16:27.861Z,102059.47
2023-05-02T19:19:00.256Z,102064.63
2023-05-02T19:21:34.198Z,102061.19
2023-05-02T19:24:06.597Z,102069.97
2023-05-02T19:26:36.614Z,102076.41
2023-05-02T19:29:06.736Z,102076.97
2023-05-02T19:31:38.982Z,102083.25
2023-05-02T19:34:09.198Z,102089.69
2023-05-02T19:36:42.124Z,102092.72
2023-05-02T19:39:13.374Z,102091.63
2023-05-02T19:41:43.352Z,102095.69
2023-05-02T19:44:16.108Z,102093.88
2023-05-02T19:46:46.416Z,102104.66
2023-05-02T19:49:16.897Z,102092.56
2023-05-02T19:51:49.736Z,102104.63
2023-05-02T19:54:19.774Z,102098.31
2023-05-02T19:56:50.622Z,102111.72
2023-05-02T19:59:21.054Z,102119.56
2023-05-02T20:01:51.229Z,102122.22
2023-05-02T20:04:21.446Z,102120.63
2023-05-02T20:06:54.496Z,102119.66
2023-05-02T20:09:25.877Z,102129.53
2023-05-02T20:11:59.587Z,102110.72
2023-05-02T20:14:29.812Z,102130.16
2023-05-02T20:17:01.755Z,102138.00
2023-05-02T20:19:32.936Z,102135.44
2023-05-02T20:22:05.660Z,102142.56
2023-05-02T20:24:35.648Z,102142.88
2023-05-02T20:27:05.976Z,102132.47
2023-05-02T20:29:36.126Z,102142.31
2023-05-02T20:32:06.362Z,102152.13
2023-05-02T20:34:37.045Z,102141.13
2023-05-02T20:37:11.089Z,102154.56
2023-05-02T20:39:41.060Z,102150.56
2023-05-02T20:42:11.704Z,102148.56
2023-05-02T20:44:42.226Z,102149.59
2023-05-02T20:47:12.599Z,102149.19
2023-05-02T20:49:42.552Z,102151.13
2023-05-02T20:52:15.461Z,102143.72
2023-05-02T20:54:46.510Z,102153.88
2023-05-02T20:57:18.017Z,102150.25
2023-05-02T20:59:53.800Z,102151.25
2023-05-02T21:02:26.977Z,102161.81
2023-05-02T21:04:57.763Z,102157.97
2023-05-02T21:07:30.429Z,102165.31
2023-05-02T21:10:01.190Z,102169.75
2023-05-02T21:12:31.541Z,102164.31
2023-05-02T21:15:01.690Z,102158.94
2023-05-02T21:17:31.926Z,102163.53
2023-05-02T21:20:05.139Z,102169.75
2023-05-02T21:22:38.073Z,102160.44
2023-05-02T21:25:08.933Z,102157.31
2023-05-02T21:27:39.043Z,102158.03
2023-05-02T21:30:10.829Z,102161.03
2023-05-02T21:32:41.035Z,102157.63
2023-05-02T21:35:11.624Z,102159.34
2023-05-02T21:37:44.673Z,102165.75
2023-05-02T21:40:16.986Z,102157.34
2023-05-02T21:42:47.053Z,102176.78
2023-05-02T21:45:17.350Z,102172.47
2023-05-02T21:47:47.374Z,102177.69
2023-05-02T21:50:17.439Z,102157.22
2023-05-02T21:52:51.473Z,102166.19
2023-05-02T21:55:21.644Z,102160.56
2023-05-02T21:57:51.714Z,102165.13
2023-05-02T22:00:21.872Z,102164.75
2023-05-02T22:02:52.077Z,102170.25
2023-05-02T22:05:22.334Z,102172.38
2023-05-02T22:07:55.769Z,102169.25
2023-05-02T22:10:26.048Z,102174.53
2023-05-02T22:12:56.362Z,102170.06
2023-05-02T22:15:26.324Z,102158.41
2023-05-02T22:17:57.428Z,102175.16
2023-05-02T22:20:28.424Z,102184.34
2023-05-02T22:23:01.223Z,102153.50
2023-05-02T22:25:31.227Z,102189.16
2023-05-02T22:28:07.219Z,102185.03
2023-05-02T22:30:37.222Z,102183.44
2023-05-02T22:33:07.627Z,102177.34
2023-05-02T22:35:38.909Z,102178.91
2023-05-02T22:38:11.876Z,102181.22
2023-05-02T22:40:42.043Z,102178.13
2023-05-02T22:43:12.048Z,102168.28
2023-05-02T22:45:42.184Z,102191.34
2023-05-02T22:48:12.259Z,102196.75
2023-05-02T22:50:43.284Z,102193.16
2023-05-02T22:53:16.072Z,102191.63
2023-05-02T22:55:46.092Z,102197.13
2023-05-02T22:58:17.293Z,102197.72
2023-05-02T23:00:47.440Z,102201.81
2023-05-02T23:03:17.645Z,102197.22
2023-05-02T23:05:47.862Z,102187.97
2023-05-02T23:08:21.089Z,102166.13
2023-05-02T23:10:51.375Z,102190.97
2023-05-02T23:13:21.459Z,102193.47
2023-05-02T23:15:56.162Z,102194.78
2023-05-02T23:18:38.676Z,102189.19
2023-05-02T23:21:17.142Z,102179.63
2023-05-02T23:23:50.250Z,102197.16
2023-05-02T23:26:22.438Z,102190.16
2023-05-02T23:28:52.770Z,102196.78
2023-05-02T23:31:22.880Z,102198.38
2023-05-02T23:33:53.261Z,102193.63
2023-05-02T23:36:23.404Z,102197.53
2023-05-02T23:38:56.238Z,102198.91
2023-05-02T23:41:26.652Z,102193.81
2023-05-02T23:43:57.236Z,102187.38
2023-05-02T23:46:27.929Z,102198.09
2023-05-02T23:48:57.967Z,102195.19
2023-05-02T23:51:32.269Z,102201.97
2023-05-02T23:54:16.200Z,102204.47
2023-05-02T23:56:46.651Z,102200.19
2023-05-02T23:59:18.463Z,102201.97
